Time;durP1;ratioP1;P1;durP2;ratioP2;P2;SDS_P1;SDS_P2;PMS_P1;PMS_P2;Temp;Humidity;BMP_temperature;BMP_pressure;BME280_temperature;BME280_humidity;BME280_pressure;Samples;Min_cycle;Max_cycle;Signal;HPM_P1;HPM_P2
2023/12/19 00:00:28;;;;;;;50.00;29.73;;;7.60;96.20;;;;;;4980876;28;20198;-90
2023/12/19 00:02:55;;;;;;;60.67;36.00;;;7.60;96.20;;;;;;4980924;28;20261;-90
2023/12/19 00:05:20;;;;;;;58.10;36.67;;;7.60;96.20;;;;;;4981886;28;20174;-90
2023/12/19 00:07:46;;;;;;;53.27;33.30;;;7.60;96.20;;;;;;4980501;28;20746;-90
2023/12/19 00:10:12;;;;;;;50.87;31.73;;;7.60;96.20;;;;;;4979436;28;20198;-89
2023/12/19 00:12:38;;;;;;;56.30;34.13;;;7.60;96.20;;;;;;4996955;28;20178;-90
2023/12/19 00:15:05;;;;;;;44.73;31.40;;;7.60;96.20;;;;;;4979830;28;20181;-90
2023/12/19 00:17:30;;;;;;;54.90;35.13;;;7.60;96.20;;;;;;4978932;28;20182;-90
2023/12/19 00:19:56;;;;;;;59.00;37.00;;;7.60;96.20;;;;;;4979795;28;20194;-90
2023/12/19 00:22:22;;;;;;;52.50;32.43;;;7.60;96.20;;;;;;4996889;28;20225;-90
2023/12/19 00:24:48;;;;;;;58.37;34.60;;;7.60;96.20;;;;;;4979636;28;20188;-90
2023/12/19 00:27:14;;;;;;;50.37;29.63;;;7.60;96.20;;;;;;4979355;28;20273;-90
2023/12/19 00:29:40;;;;;;;43.93;26.43;;;7.50;96.20;;;;;;4996810;28;20200;-91
2023/12/19 00:32:05;;;;;;;48.80;29.27;;;7.60;96.20;;;;;;4980326;28;20173;-90
2023/12/19 00:34:31;;;;;;;48.17;30.27;;;7.50;96.20;;;;;;4979400;28;20258;-90
2023/12/19 00:36:56;;;;;;;45.70;27.57;;;7.50;96.20;;;;;;4979694;28;20202;-90
2023/12/19 00:39:22;;;;;;;43.90;26.70;;;7.50;96.20;;;;;;4978982;28;20202;-90
2023/12/19 00:41:47;;;;;;;43.37;28.37;;;7.50;96.20;;;;;;4980000;28;20197;-90
2023/12/19 00:44:13;;;;;;;45.30;30.37;;;7.40;96.20;;;;;;4979739;28;20193;-90
2023/12/19 00:46:38;;;;;;;37.50;23.60;;;7.40;96.20;;;;;;4978863;28;20182;-90
2023/12/19 00:49:04;;;;;;;38.27;26.10;;;7.40;96.20;;;;;;4978831;28;20198;-90
2023/12/19 00:51:29;;;;;;;45.53;23.97;;;7.50;96.20;;;;;;4994710;28;20207;-90
2023/12/19 00:53:55;;;;;;;44.97;25.90;;;7.50;96.10;;;;;;4978845;28;20276;-89
2023/12/19 00:56:20;;;;;;;44.07;27.70;;;7.40;96.10;;;;;;4978233;28;20208;-90
2023/12/19 00:58:46;;;;;;;41.97;25.90;;;7.50;96.10;;;;;;4978142;28;20229;-90
2023/12/19 01:01:11;;;;;;;33.87;24.13;;;7.50;96.10;;;;;;4995188;28;20658;-88
2023/12/19 01:03:38;;;;;;;29.53;17.73;;;7.50;96.00;;;;;;4997742;28;20537;-89
2023/12/19 01:06:05;;;;;;;37.80;22.77;;;7.50;95.90;;;;;;4995056;28;20182;-89
2023/12/19 01:08:31;;;;;;;26.67;16.97;;;7.50;95.90;;;;;;4995918;28;20174;-90
2023/12/19 01:10:56;;;;;;;36.07;23.57;;;7.50;95.80;;;;;;4978187;28;20592;-90
2023/12/19 01:13:22;;;;;;;31.10;20.63;;;7.50;95.70;;;;;;4977939;28;20205;-90
2023/12/19 01:15:47;;;;;;;36.73;25.70;;;7.50;95.70;;;;;;4978252;28;20178;-90
2023/12/19 01:18:13;;;;;;;34.53;22.30;;;7.50;95.70;;;;;;4978604;28;20178;-90
2023/12/19 01:20:39;;;;;;;32.70;23.70;;;7.50;95.70;;;;;;4993873;28;20280;-90
2023/12/19 01:23:05;;;;;;;35.33;21.47;;;7.50;95.70;;;;;;4977685;28;20234;-90
2023/12/19 01:25:31;;;;;;;38.73;22.27;;;7.50;95.60;;;;;;4977958;28;20178;-90
2023/12/19 01:27:56;;;;;;;37.37;21.40;;;7.50;95.60;;;;;;4977468;28;20182;-90
2023/12/19 01:30:22;;;;;;;32.63;20.57;;;7.50;95.70;;;;;;4977429;28;20221;-90
2023/12/19 01:32:48;;;;;;;32.47;23.60;;;7.40;95.70;;;;;;4977372;28;20182;-90
2023/12/19 01:35:14;;;;;;;28.47;20.10;;;7.50;95.70;;;;;;4977847;28;20721;-89
2023/12/19 01:37:42;;;;;;;30.93;20.60;;;7.50;95.70;;;;;;4977558;28;20228;-90
2023/12/19 01:40:08;;;;;;;30.60;20.30;;;7.50;95.60;;;;;;4977290;28;20198;-90
2023/12/19 01:42:34;;;;;;;32.37;20.97;;;7.50;95.70;;;;;;4977610;28;20201;-90
2023/12/19 01:45:11;;;;;;;29.73;23.13;;;7.50;95.60;;;;;;4977448;28;20185;-90
2023/12/19 01:47:44;;;;;;;25.20;16.60;;;7.50;95.60;;;;;;4977391;28;20204;-90
2023/12/19 01:50:14;;;;;;;30.57;18.77;;;7.50;95.60;;;;;;4977133;28;20194;-90
2023/12/19 01:52:48;;;;;;;21.03;15.60;;;7.50;95.70;;;;;;4977016;28;20178;-89
2023/12/19 01:55:14;;;;;;;30.50;20.57;;;7.50;95.60;;;;;;4977253;28;20661;-90
2023/12/19 01:57:40;;;;;;;37.93;25.17;;;7.50;95.50;;;;;;4994597;28;20595;-90
2023/12/19 02:00:07;;;;;;;25.83;17.47;;;7.50;95.50;;;;;;4977157;28;20202;-90
2023/12/19 02:02:32;;;;;;;29.03;19.47;;;7.50;95.50;;;;;;4977149;28;20222;-90
2023/12/19 02:04:58;;;;;;;31.87;23.30;;;7.50;95.60;;;;;;4977253;28;20202;-90
2023/12/19 02:07:24;;;;;;;30.63;23.03;;;7.50;95.50;;;;;;4977124;28;20176;-90
2023/12/19 02:09:52;;;;;;;34.83;22.87;;;7.50;95.50;;;;;;4977000;28;20190;-90
2023/12/19 02:12:17;;;;;;;31.13;21.97;;;7.50;95.50;;;;;;4976979;28;20241;-90
2023/12/19 02:14:44;;;;;;;27.50;18.33;;;7.50;95.50;;;;;;4994612;28;20647;-90
2023/12/19 02:17:11;;;;;;;30.57;20.70;;;7.60;95.50;;;;;;4977611;28;20178;-90
2023/12/19 02:19:49;;;;;;;33.53;23.93;;;7.60;95.40;;;;;;4977344;28;20281;-90
2023/12/19 02:22:15;;;;;;;30.77;19.90;;;7.60;95.40;;;;;;4977111;28;20177;-90
2023/12/19 02:24:41;;;;;;;31.47;20.07;;;7.60;95.40;;;;;;4976834;28;20178;-90
2023/12/19 02:27:08;;;;;;;25.00;17.87;;;7.60;95.30;;;;;;4976722;28;20233;-90
2023/12/19 02:29:34;;;;;;;21.47;15.13;;;7.60;95.30;;;;;;4977063;28;20265;-91
2023/12/19 02:31:59;;;;;;;31.60;23.33;;;7.60;95.20;;;;;;4977272;28;20269;-90
2023/12/19 02:34:25;;;;;;;25.63;20.60;;;7.60;95.10;;;;;;4977195;28;20202;-89
2023/12/19 02:36:51;;;;;;;28.07;17.63;;;7.60;95.10;;;;;;4976534;28;20245;-90
2023/12/19 02:39:16;;;;;;;32.37;20.90;;;7.60;95.10;;;;;;4977232;28;20197;-90
2023/12/19 02:41:42;;;;;;;30.07;20.30;;;7.60;95.20;;;;;;4977405;28;20174;-90
2023/12/19 02:44:08;;;;;;;35.63;22.03;;;7.60;95.30;;;;;;4976879;28;20186;-90
2023/12/19 02:46:33;;;;;;;34.00;24.27;;;7.60;95.30;;;;;;4976698;28;20178;-90
2023/12/19 02:48:59;;;;;;;26.60;16.43;;;7.50;95.40;;;;;;4976765;28;20197;-90
2023/12/19 02:51:25;;;;;;;31.00;19.77;;;7.50;95.50;;;;;;4976661;28;20181;-90
2023/12/19 02:53:52;;;;;;;29.70;20.83;;;7.50;95.70;;;;;;4976841;28;20205;-90
2023/12/19 02:56:17;;;;;;;27.60;20.47;;;7.40;95.70;;;;;;4976734;28;20237;-90
2023/12/19 02:58:43;;;;;;;31.53;22.73;;;7.40;95.80;;;;;;4976555;28;20269;-89
2023/12/19 03:01:09;;;;;;;23.73;15.87;;;7.50;95.90;;;;;;4976632;28;20646;-89
2023/12/19 03:03:34;;;;;;;27.60;19.50;;;7.50;95.90;;;;;;4992693;28;20211;-90
2023/12/19 03:06:00;;;;;;;29.53;19.20;;;7.50;95.90;;;;;;4976597;28;20531;-90
2023/12/19 03:08:26;;;;;;;31.70;20.40;;;7.50;95.90;;;;;;4976157;28;20184;-90
2023/12/19 03:10:52;;;;;;;29.43;20.63;;;7.50;95.90;;;;;;4976380;28;20292;-89
2023/12/19 03:13:17;;;;;;;29.43;20.53;;;7.50;95.90;;;;;;4993629;28;20705;-90
2023/12/19 03:15:43;;;;;;;31.07;17.77;;;7.50;95.90;;;;;;4976232;28;20178;-90
2023/12/19 03:18:09;;;;;;;29.63;19.90;;;7.50;95.90;;;;;;4976275;28;20216;-89
2023/12/19 03:20:34;;;;;;;22.63;14.90;;;7.50;95.90;;;;;;4979211;28;20293;-90
2023/12/19 03:23:00;;;;;;;29.57;20.00;;;7.60;95.90;;;;;;4980389;28;20558;-90
2023/12/19 03:25:25;;;;;;;24.10;18.50;;;7.50;95.80;;;;;;4980358;28;20174;-90
2023/12/19 03:27:51;;;;;;;20.03;13.63;;;7.50;95.80;;;;;;4979849;28;20186;-90
2023/12/19 03:30:16;;;;;;;26.53;18.70;;;7.60;95.70;;;;;;4979721;28;20198;-90
2023/12/19 03:32:42;;;;;;;22.03;15.40;;;7.50;95.70;;;;;;4979930;28;20547;-90
2023/12/19 03:35:07;;;;;;;25.43;17.80;;;7.60;95.70;;;;;;4979819;28;20681;-91
2023/12/19 03:37:33;;;;;;;25.07;16.87;;;7.50;95.70;;;;;;4979810;28;20334;-90
2023/12/19 03:39:59;;;;;;;23.30;16.70;;;7.60;95.60;;;;;;4980049;28;20252;-89
2023/12/19 03:42:24;;;;;;;26.60;19.57;;;7.60;95.60;;;;;;4995785;28;20201;-90
2023/12/19 03:44:50;;;;;;;28.03;19.53;;;7.60;95.60;;;;;;4979704;28;20238;-90
2023/12/19 03:47:16;;;;;;;26.90;20.40;;;7.50;95.60;;;;;;4980501;28;20189;-90
2023/12/19 03:49:41;;;;;;;24.27;18.37;;;7.50;95.70;;;;;;4979532;28;20570;-91
2023/12/19 03:52:08;;;;;;;27.27;21.20;;;7.50;95.60;;;;;;4979819;28;20257;-90
2023/12/19 03:54:34;;;;;;;30.07;20.33;;;7.50;95.70;;;;;;4979873;28;20255;-90
2023/12/19 03:56:59;;;;;;;27.53;19.43;;;7.50;95.80;;;;;;4979153;28;20178;-90
2023/12/19 03:59:25;;;;;;;21.77;17.23;;;7.50;95.80;;;;;;4979140;28;20194;-90
2023/12/19 04:01:51;;;;;;;17.77;14.87;;;7.50;95.80;;;;;;4979357;28;20269;-90
2023/12/19 04:04:17;;;;;;;24.17;19.33;;;7.50;95.80;;;;;;4978977;28;20181;-90
2023/12/19 04:06:43;;;;;;;23.97;19.17;;;7.50;95.80;;;;;;4995325;28;20182;-90
2023/12/19 04:09:12;;;;;;;21.73;18.47;;;7.50;95.80;;;;;;4998411;28;20190;-90
2023/12/19 04:11:38;;;;;;;23.50;18.30;;;7.50;95.80;;;;;;4979836;28;20181;-90
2023/12/19 04:14:05;;;;;;;23.03;17.63;;;7.50;95.80;;;;;;4978740;28;20581;-89
2023/12/19 04:16:31;;;;;;;20.30;16.87;;;7.50;95.80;;;;;;4978705;28;20184;-90
2023/12/19 04:18:57;;;;;;;21.17;18.47;;;7.50;95.80;;;;;;4978955;28;20194;-90
2023/12/19 04:21:22;;;;;;;25.77;18.50;;;7.50;95.80;;;;;;4996179;28;20174;-90
2023/12/19 04:23:48;;;;;;;22.40;16.27;;;7.50;95.80;;;;;;4994971;28;20185;-89
2023/12/19 04:26:20;;;;;;;22.57;15.40;;;7.60;95.70;;;;;;4978863;28;20197;-90
2023/12/19 04:28:46;;;;;;;19.63;16.77;;;7.50;95.70;;;;;;4996291;28;20183;-90
2023/12/19 04:31:12;;;;;;;21.43;16.30;;;7.60;95.70;;;;;;4977845;28;20221;-90
2023/12/19 04:33:37;;;;;;;20.90;15.20;;;7.60;95.70;;;;;;4978852;28;20239;-89
2023/12/19 04:36:03;;;;;;;20.20;15.83;;;7.60;95.70;;;;;;4978721;28;20174;-90
2023/12/19 04:38:29;;;;;;;20.97;15.50;;;7.50;95.60;;;;;;4978849;28;20677;-90
2023/12/19 04:40:54;;;;;;;23.37;19.20;;;7.60;95.60;;;;;;4978485;28;20221;-89
2023/12/19 04:43:20;;;;;;;20.00;15.27;;;7.60;95.60;;;;;;4978498;28;20277;-89
2023/12/19 04:45:46;;;;;;;20.03;16.90;;;7.60;95.60;;;;;;4978564;28;20182;-90
2023/12/19 04:48:11;;;;;;;21.63;16.47;;;7.60;95.50;;;;;;4978147;28;20186;-90
2023/12/19 04:50:37;;;;;;;24.27;17.80;;;7.60;95.50;;;;;;4978016;28;20707;-90
2023/12/19 04:53:02;;;;;;;22.00;16.37;;;7.60;95.60;;;;;;4978044;28;20269;-90
2023/12/19 04:55:28;;;;;;;20.73;16.47;;;7.50;95.60;;;;;;4994712;28;20178;-89
2023/12/19 04:57:53;;;;;;;22.30;16.57;;;7.50;95.60;;;;;;4977945;28;20177;-90
2023/12/19 05:00:19;;;;;;;22.43;16.67;;;7.50;95.60;;;;;;4978231;28;20194;-90
2023/12/19 05:02:44;;;;;;;19.57;15.10;;;7.60;95.60;;;;;;4977921;28;20619;-89
2023/12/19 05:05:10;;;;;;;19.33;15.50;;;7.60;95.60;;;;;;4978172;28;20725;-91
2023/12/19 05:07:36;;;;;;;23.40;16.73;;;7.50;95.60;;;;;;4994271;28;20182;-90
2023/12/19 05:10:02;;;;;;;26.13;18.83;;;7.50;95.70;;;;;;4978201;28;20225;-90
2023/12/19 05:12:27;;;;;;;25.87;17.83;;;7.50;95.70;;;;;;4977946;28;20547;-90
2023/12/19 05:14:53;;;;;;;25.03;17.77;;;7.50;95.80;;;;;;4977928;28;20226;-90
2023/12/19 05:17:19;;;;;;;26.23;18.63;;;7.40;95.90;;;;;;4978303;28;20197;-90
2023/12/19 05:19:44;;;;;;;24.20;17.10;;;7.40;96.00;;;;;;4977767;28;20194;-90
2023/12/19 05:22:10;;;;;;;27.97;18.43;;;7.40;96.00;;;;;;4995152;28;20198;-90
2023/12/19 05:24:37;;;;;;;27.97;19.03;;;7.40;96.10;;;;;;4978004;28;20181;-90
2023/12/19 05:27:04;;;;;;;30.57;21.17;;;7.40;96.20;;;;;;4995119;28;20571;-90
2023/12/19 05:29:30;;;;;;;34.50;24.63;;;7.40;96.20;;;;;;4977433;28;20201;-90
2023/12/19 05:31:55;;;;;;;33.87;23.87;;;7.30;96.30;;;;;;4993630;28;20178;-91
2023/12/19 05:34:21;;;;;;;25.33;17.67;;;7.30;96.30;;;;;;4977262;28;20205;-90
2023/12/19 05:36:47;;;;;;;26.67;18.80;;;7.30;96.40;;;;;;4977170;28;20190;-90
2023/12/19 05:39:13;;;;;;;31.77;22.10;;;7.30;96.50;;;;;;4993381;28;20205;-91
2023/12/19 05:41:38;;;;;;;35.47;22.63;;;7.30;96.50;;;;;;4976958;28;20210;-90
2023/12/19 05:44:04;;;;;;;34.03;21.97;;;7.30;96.50;;;;;;4977216;28;20666;-90
2023/12/19 05:46:30;;;;;;;34.17;22.17;;;7.30;96.50;;;;;;4977060;28;20562;-91
2023/12/19 05:48:56;;;;;;;30.47;19.87;;;7.30;96.60;;;;;;4977090;28;20709;-91
2023/12/19 05:51:22;;;;;;;31.67;22.47;;;7.20;96.60;;;;;;4976979;28;20209;-90
2023/12/19 05:53:47;;;;;;;32.10;20.80;;;7.20;96.60;;;;;;4976869;28;20768;-90
2023/12/19 05:56:13;;;;;;;26.13;17.20;;;7.20;96.60;;;;;;4977003;28;20666;-90
2023/12/19 05:58:39;;;;;;;27.40;20.37;;;7.20;96.70;;;;;;4994195;28;20647;-90
2023/12/19 06:01:04;;;;;;;26.47;18.50;;;7.20;96.70;;;;;;4994364;28;20174;-91
2023/12/19 06:03:30;;;;;;;26.33;16.73;;;7.20;96.70;;;;;;4977165;28;20272;-90
2023/12/19 06:05:56;;;;;;;20.40;14.77;;;7.20;96.70;;;;;;4976948;28;20213;-90
2023/12/19 06:08:22;;;;;;;24.37;15.93;;;7.20;96.70;;;;;;4976751;28;20180;-90
2023/12/19 06:10:48;;;;;;;20.87;15.17;;;7.20;96.60;;;;;;4994081;28;20221;-90
2023/12/19 06:13:14;;;;;;;16.37;12.13;;;7.20;96.60;;;;;;4976635;28;20650;-91
2023/12/19 06:15:40;;;;;;;18.37;12.97;;;7.10;96.60;;;;;;4993971;28;20253;-90
2023/12/19 06:18:05;;;;;;;16.27;12.93;;;7.10;96.50;;;;;;4976820;28;20177;-90
2023/12/19 06:20:31;;;;;;;17.90;14.40;;;7.20;96.50;;;;;;4992662;28;20232;-90
2023/12/19 06:22:56;;;;;;;15.73;12.07;;;7.10;96.50;;;;;;4977214;28;20173;-91
2023/12/19 06:25:22;;;;;;;14.37;9.17;;;7.10;96.50;;;;;;4976515;28;20174;-90
2023/12/19 06:27:47;;;;;;;14.23;12.53;;;7.10;96.50;;;;;;4993051;28;20642;-90
2023/12/19 06:30:13;;;;;;;17.73;12.43;;;7.10;96.40;;;;;;4976405;28;20201;-91
2023/12/19 06:32:40;;;;;;;12.53;10.50;;;7.10;96.40;;;;;;4976417;28;20181;-90
2023/12/19 06:35:07;;;;;;;12.37;10.63;;;7.10;96.40;;;;;;4976330;28;20208;-90
2023/12/19 06:37:34;;;;;;;12.43;9.80;;;7.10;96.30;;;;;;4976415;28;20227;-90
2023/12/19 06:40:00;;;;;;;11.90;10.60;;;7.10;96.30;;;;;;4976657;28;20315;-91
2023/12/19 06:42:25;;;;;;;11.73;10.10;;;7.10;96.30;;;;;;4976356;28;20205;-91
2023/12/19 06:44:51;;;;;;;13.47;10.60;;;7.10;96.30;;;;;;4976664;28;20177;-90
2023/12/19 06:47:17;;;;;;;9.43;7.70;;;7.10;96.30;;;;;;4976382;28;20178;-90
2023/12/19 06:49:43;;;;;;;11.30;8.63;;;7.10;96.30;;;;;;4992248;28;20753;-90
2023/12/19 06:52:09;;;;;;;11.13;9.33;;;7.10;96.20;;;;;;4976334;28;20178;-90
2023/12/19 06:54:38;;;;;;;11.20;9.27;;;7.10;96.30;;;;;;4994299;28;20206;-91
2023/12/19 06:57:05;;;;;;;10.37;8.53;;;7.10;96.20;;;;;;4996416;28;20181;-90
2023/12/19 06:59:34;;;;;;;8.43;7.53;;;7.00;96.20;;;;;;4980023;28;20253;-90
2023/12/19 07:01:59;;;;;;;11.80;8.07;;;7.10;96.20;;;;;;4997766;28;20174;-90
2023/12/19 07:04:26;;;;;;;9.90;7.63;;;7.10;96.20;;;;;;4996077;28;20193;-90
2023/12/19 07:06:51;;;;;;;7.93;7.03;;;7.10;96.20;;;;;;4996182;28;20261;-90
2023/12/19 07:09:17;;;;;;;8.47;7.53;;;7.10;96.20;;;;;;4996240;28;20292;-90
2023/12/19 07:11:42;;;;;;;7.07;6.27;;;7.00;96.20;;;;;;4996411;28;20303;-90
2023/12/19 07:14:08;;;;;;;7.50;6.60;;;7.00;96.10;;;;;;4995874;28;20209;-90
2023/12/19 07:16:33;;;;;;;9.00;6.93;;;7.00;96.20;;;;;;4995929;28;20185;-90
2023/12/19 07:19:00;;;;;;;7.83;6.57;;;7.00;96.20;;;;;;4995773;28;20194;-90
2023/12/19 07:21:26;;;;;;;6.53;5.77;;;7.00;96.20;;;;;;4995832;28;20185;-90
2023/12/19 07:23:53;;;;;;;4.93;4.53;;;7.00;96.20;;;;;;4995857;28;20186;-90
2023/12/19 07:26:27;;;;;;;8.50;7.70;;;7.00;96.20;;;;;;4979534;28;20182;-90
2023/12/19 07:28:54;;;;;;;8.70;7.93;;;7.00;96.20;;;;;;4979630;28;20205;-90
2023/12/19 07:31:26;;;;;;;8.77;7.87;;;7.00;96.20;;;;;;4995707;28;20174;-90
2023/12/19 07:33:57;;;;;;;8.93;7.67;;;7.00;96.20;;;;;;4979293;28;20190;-90
2023/12/19 07:36:24;;;;;;;9.27;8.37;;;7.00;96.20;;;;;;4979498;28;20173;-90
2023/12/19 07:38:50;;;;;;;9.57;8.50;;;7.00;96.20;;;;;;4979632;28;20206;-91
2023/12/19 07:41:16;;;;;;;9.07;8.20;;;7.00;96.20;;;;;;4979283;28;20638;-90
2023/12/19 07:43:42;;;;;;;8.00;7.27;;;7.00;96.20;;;;;;4995557;28;20181;-90
2023/12/19 07:46:07;;;;;;;8.90;8.00;;;7.00;96.20;;;;;;4995376;28;20241;-90
2023/12/19 07:48:33;;;;;;;9.70;7.90;;;7.00;96.30;;;;;;4995466;28;20182;-91
2023/12/19 07:50:59;;;;;;;9.23;7.83;;;7.00;96.30;;;;;;4979337;28;20677;-90
2023/12/19 07:53:28;;;;;;;9.00;8.20;;;7.00;96.30;;;;;;4996360;28;20206;-90
2023/12/19 07:55:54;;;;;;;9.03;8.20;;;7.00;96.30;;;;;;4996438;28;20174;-91
2023/12/19 07:58:20;;;;;;;9.13;8.30;;;6.90;96.40;;;;;;4996326;28;20166;-90
2023/12/19 08:00:47;;;;;;;9.10;8.30;;;7.00;96.40;;;;;;4996229;28;20670;-90
2023/12/19 08:03:15;;;;;;;8.30;7.50;;;6.90;96.40;;;;;;4983886;28;20525;-90
2023/12/19 08:05:50;;;;;;;8.67;7.87;;;6.90;96.40;;;;;;4996086;28;20185;-89
2023/12/19 08:08:16;;;;;;;7.00;6.30;;;7.00;96.40;;;;;;4997035;28;20162;-89
2023/12/19 08:10:44;;;;;;;6.47;5.87;;;7.00;96.40;;;;;;4998735;28;20677;-90
2023/12/19 08:13:09;;;;;;;8.90;8.00;;;7.00;96.40;;;;;;4994916;28;20178;-91
2023/12/19 08:15:35;;;;;;;9.47;8.67;;;6.90;96.50;;;;;;4996214;28;20545;-90
2023/12/19 08:18:00;;;;;;;8.57;7.87;;;7.00;96.50;;;;;;4995379;28;20177;-90
2023/12/19 08:20:26;;;;;;;7.00;6.07;;;7.00;96.50;;;;;;4994647;28;20205;-90
2023/12/19 08:22:51;;;;;;;7.67;6.70;;;7.00;96.50;;;;;;4995125;28;20180;-91
2023/12/19 08:25:17;;;;;;;9.83;8.80;;;6.90;96.50;;;;;;4994840;28;20222;-91
2023/12/19 08:27:42;;;;;;;8.27;7.57;;;6.90;96.50;;;;;;4995171;28;20212;-91
2023/12/19 08:30:09;;;;;;;9.23;8.47;;;6.90;96.50;;;;;;4996727;28;20223;-91
2023/12/19 08:32:35;;;;;;;7.30;6.27;;;6.90;96.50;;;;;;4978731;28;20201;-91
2023/12/19 08:35:01;;;;;;;7.27;5.50;;;6.90;96.50;;;;;;4994554;28;20717;-91
2023/12/19 08:37:26;;;;;;;8.63;7.80;;;6.90;96.60;;;;;;4994582;28;20189;-91
2023/12/19 08:39:56;;;;;;;8.63;7.93;;;6.90;96.50;;;;;;4994696;28;20190;-90
2023/12/19 08:42:22;;;;;;;8.53;7.67;;;6.90;96.50;;;;;;4995119;28;20583;-91
2023/12/19 08:44:49;;;;;;;7.27;5.77;;;6.90;96.50;;;;;;4995653;28;20178;-92
2023/12/19 08:47:14;;;;;;;6.73;5.83;;;6.80;96.50;;;;;;4979466;28;20185;-91
2023/12/19 08:49:43;;;;;;;7.70;7.03;;;6.90;96.50;;;;;;4995107;28;20206;-91
2023/12/19 08:52:09;;;;;;;7.70;6.90;;;6.90;96.60;;;;;;4994499;28;20182;-91
2023/12/19 08:54:35;;;;;;;8.30;7.50;;;6.80;96.60;;;;;;4978242;28;20745;-91
2023/12/19 08:57:01;;;;;;;7.70;5.47;;;6.90;96.60;;;;;;4978446;28;20174;-91
2023/12/19 08:59:26;;;;;;;7.47;5.73;;;6.90;96.60;;;;;;4994323;28;20186;-91
2023/12/19 09:01:53;;;;;;;7.30;6.70;;;6.90;96.60;;;;;;4994380;28;20551;-91
2023/12/19 09:04:19;;;;;;;7.70;7.10;;;6.90;96.60;;;;;;4978213;28;20567;-91
2023/12/19 09:06:45;;;;;;;6.60;6.00;;;6.80;96.60;;;;;;4994481;28;20236;-91
2023/12/19 09:09:11;;;;;;;5.57;5.07;;;6.80;96.60;;;;;;4977998;28;20288;-91
2023/12/19 09:11:37;;;;;;;6.70;5.00;;;6.80;96.60;;;;;;4994866;28;20267;-91
2023/12/19 09:14:03;;;;;;;6.03;5.43;;;6.90;96.60;;;;;;4978225;28;20687;-91
2023/12/19 09:16:28;;;;;;;5.17;4.67;;;6.90;96.60;;;;;;4993238;28;20213;-91
2023/12/19 09:18:55;;;;;;;5.63;5.13;;;6.90;96.60;;;;;;4993772;28;20306;-91
2023/12/19 09:21:21;;;;;;;4.80;4.40;;;6.90;96.60;;;;;;4993877;28;20210;-90
2023/12/19 09:23:47;;;;;;;4.87;4.47;;;6.90;96.60;;;;;;4993978;28;20655;-90
2023/12/19 09:26:14;;;;;;;5.63;5.13;;;6.90;96.60;;;;;;4994300;28;20189;-92
2023/12/19 09:28:40;;;;;;;5.70;5.17;;;6.90;96.60;;;;;;4996522;28;20182;-89
2023/12/19 09:31:07;;;;;;;5.20;4.80;;;6.90;96.60;;;;;;4993626;28;20205;-89
2023/12/19 09:33:34;;;;;;;5.53;5.03;;;6.90;96.60;;;;;;4982469;28;20216;-91
2023/12/19 09:36:00;;;;;;;6.17;5.57;;;6.90;96.60;;;;;;4977490;28;20221;-91
2023/12/19 09:38:26;;;;;;;6.40;5.30;;;6.90;96.60;;;;;;4977458;28;20240;-91
2023/12/19 09:40:51;;;;;;;5.00;4.60;;;6.90;96.50;;;;;;4993195;28;20199;-90
2023/12/19 09:43:17;;;;;;;5.20;4.80;;;6.90;96.50;;;;;;4993347;28;20173;-90
2023/12/19 09:45:44;;;;;;;6.13;5.63;;;6.90;96.50;;;;;;4993325;28;20634;-90
2023/12/19 09:48:13;;;;;;;6.27;5.77;;;6.90;96.50;;;;;;4977159;28;20178;-90
2023/12/19 09:50:44;;;;;;;6.20;5.70;;;6.90;96.50;;;;;;4977336;28;20258;-90
2023/12/19 09:53:10;;;;;;;7.47;5.57;;;6.90;96.40;;;;;;4976834;28;20173;-90
2023/12/19 09:55:43;;;;;;;6.40;5.90;;;6.90;96.40;;;;;;4994216;28;20225;-90
2023/12/19 09:58:11;;;;;;;6.30;5.80;;;6.90;96.40;;;;;;4994408;28;20161;-90
2023/12/19 10:00:41;;;;;;;5.93;5.47;;;7.00;96.40;;;;;;4976770;28;20194;-90
2023/12/19 10:03:07;;;;;;;6.33;5.73;;;6.90;96.30;;;;;;4976757;28;20373;-90
2023/12/19 10:05:33;;;;;;;4.63;4.33;;;7.00;96.30;;;;;;4993020;28;20174;-91
2023/12/19 10:07:59;;;;;;;5.03;4.63;;;6.90;96.30;;;;;;4994134;28;20178;-91
2023/12/19 10:10:49;;;;;;;5.10;4.70;;;7.00;96.30;;;;;;4994358;28;20190;-91
2023/12/19 10:13:32;;;;;;;5.10;4.70;;;6.90;96.20;;;;;;4977162;28;20178;-90
2023/12/19 10:16:02;;;;;;;4.83;4.53;;;7.00;96.20;;;;;;4993894;28;20359;-91
2023/12/19 10:18:28;;;;;;;5.20;4.80;;;7.00;96.20;;;;;;4977617;28;20665;-90
2023/12/19 10:21:13;;;;;;;5.00;4.47;;;7.00;96.20;;;;;;4993766;28;20197;-91
2023/12/19 10:23:43;;;;;;;5.50;5.10;;;7.00;96.20;;;;;;4978214;28;20205;-91
2023/12/19 10:26:09;;;;;;;4.23;3.90;;;7.00;96.20;;;;;;4977026;28;20242;-90
2023/12/19 10:28:36;;;;;;;3.03;2.83;;;7.10;96.20;;;;;;4976751;28;20205;-91
2023/12/19 10:31:14;;;;;;;4.13;3.73;;;7.00;96.20;;;;;;4977552;28;20185;-90
2023/12/19 10:33:49;;;;;;;5.70;5.30;;;7.00;96.20;;;;;;4977078;28;20627;-90
2023/12/19 10:36:23;;;;;;;5.63;5.23;;;7.00;96.20;;;;;;4993657;28;20587;-90
2023/12/19 10:38:48;;;;;;;4.20;3.90;;;7.10;96.20;;;;;;4993493;28;20195;-90
2023/12/19 10:41:32;;;;;;;4.30;4.00;;;7.10;96.20;;;;;;4994456;28;20174;-90
2023/12/19 10:43:59;;;;;;;7.13;5.70;;;7.10;96.20;;;;;;4976478;28;20185;-90
2023/12/19 10:46:34;;;;;;;5.83;5.43;;;7.10;96.10;;;;;;4980463;28;20221;-92
2023/12/19 10:49:02;;;;;;;5.77;5.37;;;7.10;96.20;;;;;;4982489;28;20201;-91
2023/12/19 10:51:32;;;;;;;3.93;3.63;;;7.10;96.20;;;;;;4986108;28;20189;-94
2023/12/19 10:54:05;;;;;;;4.30;4.00;;;7.20;96.10;;;;;;4986496;28;20704;-91
2023/12/19 10:56:37;;;;;;;5.20;4.80;;;7.10;96.10;;;;;;4986332;28;20170;-92
2023/12/19 10:59:07;;;;;;;5.80;5.40;;;7.20;96.10;;;;;;4993180;28;20198;-93
2023/12/19 11:01:44;;;;;;;4.73;4.33;;;7.20;96.10;;;;;;4974682;28;20163;-93
2023/12/19 11:04:24;;;;;;;5.00;4.50;;;7.20;96.10;;;;;;4998943;28;20198;-92
2023/12/19 11:07:04;;;;;;;5.00;4.60;;;7.20;96.10;;;;;;5000007;28;20201;-93
2023/12/19 11:09:34;;;;;;;9.57;4.70;;;7.20;96.10;;;;;;5012002;23;20244;-91
2023/12/19 11:12:01;;;;;;;5.20;4.80;;;7.20;96.10;;;;;;5000209;28;20178;-93
2023/12/19 11:14:26;;;;;;;5.23;4.83;;;7.20;96.10;;;;;;5016298;28;20205;-94
2023/12/19 11:17:15;;;;;;;4.97;4.57;;;7.20;96.10;;;;;;5005662;28;20178;-91
2023/12/19 11:19:44;;;;;;;5.50;5.10;;;7.20;96.10;;;;;;4999160;28;20266;-92
2023/12/19 11:22:18;;;;;;;5.70;5.20;;;7.20;96.20;;;;;;5011358;28;20167;-92
2023/12/19 11:25:02;;;;;;;5.30;4.80;;;7.20;96.10;;;;;;4990629;28;20170;-92
2023/12/19 11:27:39;;;;;;;5.23;4.83;;;7.20;96.10;;;;;;4987183;28;20170;-91
2023/12/19 11:30:05;;;;;;;5.57;5.17;;;7.20;96.20;;;;;;4986057;28;20206;-93
2023/12/19 11:32:35;;;;;;;5.57;5.07;;;7.20;96.10;;;;;;4984592;28;20178;-91
2023/12/19 11:35:09;;;;;;;5.60;5.10;;;7.30;96.20;;;;;;4987717;28;20198;-93
2023/12/19 11:37:36;;;;;;;5.53;5.03;;;7.20;96.20;;;;;;5004598;28;20186;-93
2023/12/19 11:40:09;;;;;;;6.10;5.60;;;7.20;96.20;;;;;;4989239;28;20194;-93
2023/12/19 11:42:38;;;;;;;6.50;6.00;;;7.30;96.20;;;;;;4992182;28;20666;-92
2023/12/19 11:45:15;;;;;;;8.10;7.37;;;7.30;96.20;;;;;;5013837;28;20178;-92
2023/12/19 11:47:43;;;;;;;7.37;6.73;;;7.30;96.30;;;;;;5016963;28;20169;-94
2023/12/19 11:50:15;;;;;;;7.60;6.90;;;7.30;96.20;;;;;;5001756;28;20254;-93
2023/12/19 11:52:42;;;;;;;7.20;6.60;;;7.30;96.20;;;;;;5016750;23;20226;-92
2023/12/19 11:55:08;;;;;;;7.03;6.43;;;7.40;96.20;;;;;;5004920;23;20232;-92
2023/12/19 11:57:34;;;;;;;6.73;6.23;;;7.30;96.20;;;;;;4999314;28;20163;-93
2023/12/19 12:00:06;;;;;;;7.00;6.30;;;7.30;96.20;;;;;;4991564;28;20202;-93
2023/12/19 12:05:17;;;;;;;6.70;6.10;;;7.30;96.30;;;;;;5010188;23;20277;-91
2023/12/19 12:07:47;;;;;;;6.17;5.77;;;7.40;96.30;;;;;;4960805;28;20277;-91
2023/12/19 12:10:25;;;;;;;8.20;7.50;;;7.30;96.30;;;;;;4961501;28;20198;-92
2023/12/19 12:12:51;;;;;;;7.67;6.97;;;7.40;96.30;;;;;;4961107;28;20175;-91
2023/12/19 12:15:22;;;;;;;7.63;7.03;;;7.40;96.30;;;;;;4980990;28;20659;-91
2023/12/19 12:18:02;;;;;;;8.67;7.97;;;7.40;96.30;;;;;;4980832;28;20666;-91
2023/12/19 12:20:32;;;;;;;8.07;6.10;;;7.50;96.30;;;;;;4979642;28;20208;-91
2023/12/19 12:22:57;;;;;;;5.73;5.23;;;7.50;96.30;;;;;;4980027;28;20174;-92
2023/12/19 12:25:23;;;;;;;6.47;5.83;;;7.50;96.30;;;;;;4980217;28;20190;-91
2023/12/19 12:27:55;;;;;;;7.93;7.23;;;7.50;96.30;;;;;;4996241;28;20186;-91
2023/12/19 12:30:24;;;;;;;7.30;6.70;;;7.40;96.30;;;;;;4980087;28;20264;-93
2023/12/19 12:32:50;;;;;;;5.63;5.13;;;7.50;96.30;;;;;;4979861;28;20186;-93
2023/12/19 12:35:31;;;;;;;6.40;5.80;;;7.50;96.40;;;;;;4996197;28;20209;-93
2023/12/19 12:38:07;;;;;;;7.40;6.80;;;7.50;96.30;;;;;;4980745;28;20247;-92
2023/12/19 12:40:35;;;;;;;7.23;6.63;;;7.50;96.30;;;;;;4979612;28;20193;-91
2023/12/19 12:43:37;;;;;;;7.70;7.00;;;7.50;96.40;;;;;;4979566;28;20234;-92
2023/12/19 12:46:12;;;;;;;5.90;5.40;;;7.50;96.40;;;;;;4979857;28;20360;-92
2023/12/19 12:48:44;;;;;;;6.43;5.83;;;7.50;96.40;;;;;;4979654;28;20557;-91